createdAt,value
2023-05-10T00:04:10.918Z,100.00
2023-05-10T00:09:04.637Z,100.00
2023-05-10T00:13:59.087Z,100.00
2023-05-10T00:18:52.214Z,100.00
2023-05-10T00:23:45.397Z,100.00
2023-05-10T00:28:38.489Z,100.00
2023-05-10T00:33:32.942Z,100.00
2023-05-10T00:38:26.053Z,100.00
2023-05-10T00:43:19.254Z,100.00
2023-05-10T00:48:14.560Z,100.00
2023-05-10T00:53:10.321Z,100.00
2023-05-10T00:58:04.462Z,100.00
2023-05-10T01:02:57.794Z,100.00
2023-05-10T01:07:50.974Z,100.00
2023-05-10T01:12:48.781Z,100.00
2023-05-10T01:17:43.513Z,100.00
2023-05-10T01:23:12.177Z,100.00
2023-05-10T01:28:24.320Z,100.00
2023-05-10T01:33:21.662Z,100.00
2023-05-10T01:38:25.003Z,100.00
2023-05-10T01:43:24.459Z,100.00
2023-05-10T01:48:25.903Z,100.00
2023-05-10T01:53:22.305Z,100.00
2023-05-10T01:58:19.604Z,100.00
2023-05-10T02:03:14.218Z,100.00
2023-05-10T02:08:13.264Z,100.00
2023-05-10T02:13:08.182Z,100.00
2023-05-10T02:18:03.154Z,100.00
2023-05-10T02:22:59.635Z,100.00
2023-05-10T02:27:56.828Z,100.00
2023-05-10T02:32:51.985Z,100.00
2023-05-10T02:37:49.743Z,100.00
2023-05-10T02:42:46.043Z,100.00
2023-05-10T02:47:40.743Z,100.00
2023-05-10T02:52:41.692Z,100.00
2023-05-10T02:57:36.655Z,100.00
2023-05-10T03:02:31.604Z,100.00
2023-05-10T03:07:26.577Z,100.00
2023-05-10T03:12:29.270Z,100.00
2023-05-10T03:17:31.727Z,100.00
2023-05-10T03:22:32.877Z,100.00
2023-05-10T03:27:27.472Z,100.00
2023-05-10T03:32:21.984Z,100.00
2023-05-10T03:37:15.398Z,100.00
2023-05-10T03:42:13.044Z,100.00
2023-05-10T03:47:06.707Z,100.00
2023-05-10T03:52:00.222Z,100.00
2023-05-10T03:56:53.919Z,100.00
2023-05-10T04:01:50.239Z,100.00
2023-05-10T04:06:43.527Z,100.00
2023-05-10T04:11:36.843Z,100.00
2023-05-10T04:16:30.330Z,100.00
2023-05-10T04:21:24.941Z,100.00
2023-05-10T04:26:18.348Z,100.00
2023-05-10T04:31:12.671Z,100.00
2023-05-10T04:36:06.986Z,100.00
2023-05-10T04:41:08.812Z,100.00
2023-05-10T04:46:02.182Z,100.00
2023-05-10T04:50:55.362Z,100.00
2023-05-10T04:55:49.046Z,100.00
2023-05-10T05:00:43.767Z,100.00
2023-05-10T05:05:36.845Z,100.00
2023-05-10T05:10:29.900Z,100.00
2023-05-10T05:15:23.024Z,100.00
2023-05-10T05:20:25.693Z,100.00
2023-05-10T05:25:18.810Z,100.00
2023-05-10T05:30:12.597Z,100.00
2023-05-10T05:35:06.272Z,100.00
2023-05-10T05:40:02.447Z,100.00
2023-05-10T05:44:55.573Z,100.00
2023-05-10T05:49:51.828Z,100.00
2023-05-10T05:54:45.176Z,100.00
2023-05-10T05:59:42.921Z,100.00
2023-05-10T06:04:36.176Z,100.00
2023-05-10T06:09:29.425Z,100.00
2023-05-10T06:14:22.688Z,99.62
2023-05-10T06:19:17.217Z,98.73
2023-05-10T06:24:10.669Z,98.20
2023-05-10T06:29:04.128Z,96.40
2023-05-10T06:33:57.213Z,94.80
2023-05-10T06:38:52.688Z,93.14
2023-05-10T06:43:45.749Z,92.02
2023-05-10T06:48:38.990Z,91.36
2023-05-10T06:53:32.106Z,90.86
2023-05-10T06:58:26.567Z,89.72
2023-05-10T07:03:20.081Z,89.50
2023-05-10T07:08:14.421Z,88.69
2023-05-10T07:13:07.645Z,88.80
2023-05-10T07:18:02.294Z,87.15
2023-05-10T07:22:55.437Z,85.42
2023-05-10T07:27:52.242Z,83.09
2023-05-10T07:32:46.170Z,83.62
2023-05-10T07:37:43.760Z,83.05
2023-05-10T07:42:37.067Z,81.68
2023-05-10T07:47:30.323Z,80.66
2023-05-10T07:52:25.932Z,75.74
2023-05-10T07:57:20.521Z,75.27
2023-05-10T08:02:13.643Z,73.89
2023-05-10T08:07:06.861Z,72.75
2023-05-10T08:12:00.408Z,71.95
2023-05-10T08:16:54.996Z,66.87
2023-05-10T08:21:49.502Z,65.05
2023-05-10T08:26:44.516Z,63.05
2023-05-10T08:31:37.607Z,64.44
2023-05-10T08:36:33.148Z,57.75
2023-05-10T08:41:27.812Z,50.36
2023-05-10T08:46:23.121Z,48.19
2023-05-10T08:51:19.933Z,46.95
2023-05-10T08:56:14.463Z,46.32
2023-05-10T09:01:08.069Z,42.52
2023-05-10T09:06:01.199Z,39.91
2023-05-10T09:10:54.886Z,39.05
2023-05-10T09:15:50.233Z,40.29
2023-05-10T09:20:43.543Z,41.54
2023-05-10T09:25:36.848Z,38.95
2023-05-10T09:30:33.824Z,37.96
2023-05-10T09:35:33.155Z,39.54
2023-05-10T09:40:27.773Z,41.02
2023-05-10T09:45:20.926Z,41.85
2023-05-10T09:50:14.545Z,39.30
2023-05-10T09:55:10.118Z,40.92
2023-05-10T10:00:06.065Z,44.53
2023-05-10T10:05:09.183Z,44.19
2023-05-10T10:10:02.806Z,45.11
2023-05-10T10:14:58.316Z,41.44
2023-05-10T10:19:54.378Z,37.26
2023-05-10T10:24:47.719Z,35.57
2023-05-10T10:29:50.574Z,34.58
2023-05-10T10:34:45.164Z,37.99
2023-05-10T10:39:38.338Z,40.96
2023-05-10T10:44:42.685Z,37.50
2023-05-10T10:49:40.627Z,37.38
2023-05-10T10:54:35.135Z,36.21
2023-05-10T10:59:30.025Z,40.17
2023-05-10T11:04:23.322Z,37.19
2023-05-10T11:09:16.738Z,37.06
2023-05-10T11:14:11.236Z,34.69
2023-05-10T11:19:06.546Z,34.04
2023-05-10T11:24:00.851Z,30.53
2023-05-10T11:28:56.472Z,31.51
2023-05-10T11:33:53.097Z,32.09
2023-05-10T11:38:46.600Z,30.60
2023-05-10T11:43:41.041Z,29.40
2023-05-10T11:48:34.309Z,31.01
2023-05-10T11:53:30.157Z,33.12
2023-05-10T11:58:24.382Z,34.08
2023-05-10T12:03:17.985Z,35.85
2023-05-10T12:08:15.203Z,34.46
2023-05-10T12:13:14.340Z,30.98
2023-05-10T12:18:07.585Z,33.26
2023-05-10T12:23:03.125Z,31.36
2023-05-10T12:27:58.310Z,29.21
2023-05-10T12:32:53.750Z,29.69
2023-05-10T12:37:46.854Z,29.10
2023-05-10T12:42:41.080Z,26.79
2023-05-10T12:47:34.879Z,26.70
2023-05-10T12:52:29.731Z,26.67
2023-05-10T12:57:23.183Z,28.14
2023-05-10T13:02:19.173Z,28.84
2023-05-10T13:07:12.481Z,26.97
2023-05-10T13:12:09.365Z,28.41
2023-05-10T13:17:03.123Z,29.99
2023-05-10T13:21:56.198Z,31.30
2023-05-10T13:26:51.527Z,33.27
2023-05-10T13:31:46.126Z,34.19
2023-05-10T13:36:39.388Z,32.25
2023-05-10T13:41:32.510Z,29.73
2023-05-10T13:46:25.605Z,30.74
2023-05-10T13:51:20.097Z,32.33
2023-05-10T13:56:13.147Z,33.35
2023-05-10T14:01:06.965Z,34.88
2023-05-10T14:06:00.408Z,32.88
2023-05-10T14:10:55.031Z,32.42
2023-05-10T14:15:48.344Z,33.55
2023-05-10T14:20:41.605Z,32.05
2023-05-10T14:25:35.643Z,30.26
2023-05-10T14:30:30.124Z,28.18
2023-05-10T14:35:23.502Z,28.13
2023-05-10T14:40:18.219Z,27.93
2023-05-10T14:45:13.146Z,28.51
2023-05-10T14:50:08.869Z,29.75
2023-05-10T14:55:02.401Z,31.90
2023-05-10T14:59:55.779Z,33.27
2023-05-10T15:04:49.227Z,33.50
2023-05-10T15:09:44.372Z,34.76
2023-05-10T15:14:37.764Z,34.96
2023-05-10T15:19:30.895Z,35.48
2023-05-10T15:24:25.983Z,35.58
2023-05-10T15:29:21.751Z,35.84
2023-05-10T15:34:14.886Z,35.65
2023-05-10T15:39:07.904Z,36.46
2023-05-10T15:44:01.796Z,36.56
2023-05-10T15:48:57.212Z,36.82
2023-05-10T15:54:05.408Z,38.99
2023-05-10T15:58:59.927Z,40.23
2023-05-10T16:03:53.094Z,41.68
2023-05-10T16:08:47.631Z,43.08
2023-05-10T16:13:40.948Z,44.58
2023-05-10T16:18:34.187Z,46.37
2023-05-10T16:23:29.349Z,47.98
2023-05-10T16:28:23.904Z,49.19
2023-05-10T16:33:18.138Z,49.75
2023-05-10T16:38:11.286Z,49.32
2023-05-10T16:43:07.234Z,49.58
2023-05-10T16:48:01.915Z,48.74
2023-05-10T16:52:55.024Z,49.11
2023-05-10T16:57:48.215Z,49.83
2023-05-10T17:02:41.846Z,50.14
2023-05-10T17:07:36.526Z,50.25
2023-05-10T17:12:29.621Z,49.53
2023-05-10T17:17:23.637Z,49.74
2023-05-10T17:22:17.586Z,50.68
2023-05-10T17:27:12.458Z,50.63
2023-05-10T17:32:05.959Z,50.90
2023-05-10T17:36:59.257Z,51.31
2023-05-10T17:41:52.450Z,52.08
2023-05-10T17:46:46.978Z,52.14
2023-05-10T17:51:41.494Z,53.61
2023-05-10T17:56:34.769Z,53.86
2023-05-10T18:01:28.051Z,54.83
2023-05-10T18:06:22.814Z,55.90
2023-05-10T18:11:16.784Z,56.99
2023-05-10T18:16:12.800Z,57.09
2023-05-10T18:21:08.076Z,57.53
2023-05-10T18:26:03.617Z,57.74
2023-05-10T18:30:56.746Z,58.31
2023-05-10T18:35:50.095Z,58.70
2023-05-10T18:40:43.465Z,58.89
2023-05-10T18:45:39.139Z,59.25
2023-05-10T18:50:32.222Z,59.77
2023-05-10T18:55:26.917Z,60.19
2023-05-10T19:00:20.576Z,60.41
2023-05-10T19:05:16.063Z,60.40
2023-05-10T19:10:10.441Z,61.15
2023-05-10T19:15:03.686Z,60.64
2023-05-10T19:19:58.618Z,60.49
2023-05-10T19:24:53.706Z,60.31
2023-05-10T19:29:47.164Z,60.26
2023-05-10T19:34:40.413Z,59.98
2023-05-10T19:39:33.574Z,59.03
2023-05-10T19:44:28.485Z,58.57
2023-05-10T19:49:21.816Z,58.36
2023-05-10T19:54:17.137Z,58.29
2023-05-10T19:59:10.419Z,58.23
2023-05-10T20:04:04.998Z,57.14
2023-05-10T20:08:58.151Z,56.87
2023-05-10T20:13:51.319Z,56.93
2023-05-10T20:18:45.173Z,57.67
2023-05-10T20:23:39.657Z,58.31
2023-05-10T20:28:32.795Z,59.36
2023-05-10T20:33:28.778Z,59.33
2023-05-10T20:38:23.842Z,60.29
2023-05-10T20:43:18.877Z,61.24
2023-05-10T20:48:12.128Z,62.44
2023-05-10T20:53:05.345Z,63.83
2023-05-10T20:57:58.702Z,64.11
2023-05-10T21:02:53.292Z,64.97
2023-05-10T21:07:46.496Z,65.64
2023-05-10T21:12:39.663Z,66.55
2023-05-10T21:17:32.834Z,67.07
2023-05-10T21:22:29.011Z,68.04
2023-05-10T21:27:24.447Z,69.12
2023-05-10T21:32:17.556Z,68.81
2023-05-10T21:37:10.732Z,69.30
2023-05-10T21:42:06.390Z,69.29
2023-05-10T21:47:02.226Z,70.30
2023-05-10T21:51:55.252Z,71.60
2023-05-10T21:56:49.160Z,70.85
2023-05-10T22:01:49.721Z,73.63
2023-05-10T22:06:45.520Z,73.53
2023-05-10T22:11:38.557Z,73.74
2023-05-10T22:16:31.689Z,74.34
2023-05-10T22:21:28.915Z,73.81
2023-05-10T22:26:24.638Z,74.47
2023-05-10T22:31:17.839Z,75.40
2023-05-10T22:36:10.966Z,75.26
2023-05-10T22:41:05.541Z,74.57
2023-05-10T22:46:01.222Z,74.23
2023-05-10T22:50:54.356Z,74.51
2023-05-10T22:55:48.272Z,74.05
2023-05-10T23:00:42.811Z,74.18
2023-05-10T23:05:36.082Z,73.81
2023-05-10T23:10:31.533Z,73.10
2023-05-10T23:15:25.023Z,73.40
2023-05-10T23:20:19.893Z,73.79
2023-05-10T23:25:13.303Z,73.79
2023-05-10T23:30:07.642Z,75.36
2023-05-10T23:35:00.927Z,76.22
2023-05-10T23:39:55.436Z,76.24
2023-05-10T23:44:48.502Z,77.22
2023-05-10T23:49:42.272Z,77.50
2023-05-10T23:54:35.429Z,78.35
2023-05-10T23:59:30.031Z,79.06
